Time;durP1;ratioP1;P1;durP2;ratioP2;P2;SDS_P1;SDS_P2;PMS_P1;PMS_P2;Temp;Humidity;BMP_temperature;BMP_pressure;BME280_temperature;BME280_humidity;BME280_pressure;Samples;Min_cycle;Max_cycle;Signal;HPM_P1;HPM_P2
2024/04/10 00:01:26;;;;;;;6.85;2.72;;;;;;;12.55;35.67;101636.81;5311007;26;20017;-82
2024/04/10 00:03:53;;;;;;;4.68;1.50;;;;;;;12.56;35.51;101638.56;5310831;26;20037;-81
2024/04/10 00:06:23;;;;;;;6.47;1.50;;;;;;;12.53;35.47;101644.34;5309064;26;20017;-82
2024/04/10 00:08:54;;;;;;;6.15;1.70;;;;;;;12.54;35.64;101645.22;5310628;27;20060;-82
2024/04/10 00:11:25;;;;;;;6.18;1.60;;;;;;;12.46;35.30;101643.97;5310411;26;20064;-82
2024/04/10 00:13:52;;;;;;;5.65;1.70;;;;;;;12.44;35.62;101637.75;5304104;27;20010;-82
2024/04/10 00:16:22;;;;;;;5.75;1.65;;;;;;;12.46;35.42;101643.09;5312993;26;20077;-82
2024/04/10 00:18:49;;;;;;;5.30;1.95;;;;;;;12.43;35.63;101646.97;5312471;26;20020;-82
2024/04/10 00:21:20;;;;;;;6.95;1.80;;;;;;;12.42;35.32;101666.31;5312240;26;20006;-83
2024/04/10 00:23:49;;;;;;;5.95;1.25;;;;;;;12.39;35.64;101656.44;5309907;26;20016;-82
2024/04/10 00:26:21;;;;;;;6.70;1.77;;;;;;;12.40;35.64;101666.44;5309687;26;20017;-82
2024/04/10 00:28:49;;;;;;;7.95;1.60;;;;;;;12.35;35.42;101668.69;5312238;26;20021;-81
2024/04/10 00:31:19;;;;;;;4.15;1.40;;;;;;;12.35;35.11;101667.81;5305556;27;20021;-83
2024/04/10 00:33:46;;;;;;;6.15;1.70;;;;;;;12.35;35.35;101670.56;5310467;26;20002;-82
2024/04/10 00:36:16;;;;;;;5.72;1.58;;;;;;;12.31;35.42;101661.69;5310967;26;20013;-82
2024/04/10 00:38:43;;;;;;;3.83;1.75;;;;;;;12.30;35.50;101673.69;5307815;26;20006;-82
2024/04/10 00:41:12;;;;;;;5.00;1.60;;;;;;;12.28;35.33;101680.31;5309531;26;20770;-82
2024/04/10 00:43:44;;;;;;;5.60;1.38;;;;;;;12.26;35.48;101691.41;5309475;27;20100;-81
2024/04/10 00:46:19;;;;;;;6.00;1.60;;;;;;;12.26;35.47;101696.03;5308757;26;20397;-81
2024/04/10 00:48:47;;;;;;;3.47;1.35;;;;;;;12.23;35.48;101699.88;5313102;26;20003;-82
2024/04/10 00:51:20;;;;;;;4.15;1.85;;;;;;;12.23;35.45;101710.88;5308498;26;20009;-81
2024/04/10 00:53:47;;;;;;;4.72;1.50;;;;;;;12.18;35.47;101709.50;5325860;26;20390;-81
2024/04/10 00:56:17;;;;;;;3.80;1.30;;;;;;;12.17;35.45;101718.72;5308221;26;20005;-80
2024/04/10 00:58:52;;;;;;;8.68;1.83;;;;;;;12.21;35.46;101723.84;5308812;27;20054;-81
2024/04/10 01:01:22;;;;;;;5.10;1.67;;;;;;;12.17;35.81;101719.59;5308233;26;20540;-81
2024/04/10 01:03:49;;;;;;;7.30;2.00;;;;;;;12.17;35.54;101721.47;5308124;26;20148;-82
2024/04/10 01:06:20;;;;;;;5.28;1.58;;;;;;;12.16;35.56;101727.94;5308689;26;20007;-82
2024/04/10 01:08:47;;;;;;;3.92;1.48;;;;;;;12.15;35.43;101728.94;5308246;26;20010;-81
2024/04/10 01:11:17;;;;;;;4.45;1.80;;;;;;;12.14;35.43;101725.31;5308692;26;20001;-81
2024/04/10 01:13:44;;;;;;;5.18;1.63;;;;;;;12.13;35.21;101744.69;5300949;26;20474;-82
2024/04/10 01:16:16;;;;;;;5.03;1.30;;;;;;;12.11;35.68;101739.31;5310360;26;20010;-82
2024/04/10 01:18:43;;;;;;;4.97;1.67;;;;;;;12.06;35.27;101736.03;5308744;26;20064;-82
2024/04/10 01:21:13;;;;;;;5.07;1.58;;;;;;;12.07;35.63;101743.28;5309873;26;20038;-81
2024/04/10 01:23:42;;;;;;;5.82;1.70;;;;;;;12.07;35.74;101746.03;5308641;27;20076;-82
2024/04/10 01:26:12;;;;;;;6.38;1.23;;;;;;;12.04;35.62;101746.28;5309994;26;20029;-82
2024/04/10 01:28:40;;;;;;;5.10;1.45;;;;;;;12.04;35.81;101751.78;5309335;26;20016;-81
2024/04/10 01:31:09;;;;;;;8.45;1.55;;;;;;;12.02;35.80;101743.66;5308134;26;20010;-81
2024/04/10 01:33:36;;;;;;;5.10;1.67;;;;;;;12.02;35.85;101751.03;5302376;27;20414;-82
2024/04/10 01:36:10;;;;;;;5.93;2.25;;;;;;;11.99;35.83;101752.13;5302506;26;20033;-81
2024/04/10 01:38:39;;;;;;;4.65;1.30;;;;;;;12.00;35.77;101759.38;5308376;26;20350;-81
2024/04/10 01:41:12;;;;;;;6.10;1.98;;;;;;;12.01;35.68;101758.38;5309592;27;20025;-82
2024/04/10 01:43:39;;;;;;;5.53;1.60;;;;;;;11.96;35.73;101762.50;5305170;26;20017;-82
2024/04/10 01:46:09;;;;;;;5.63;1.55;;;;;;;11.96;35.92;101771.59;5308324;26;20021;-82
2024/04/10 01:48:36;;;;;;;4.57;1.83;;;;;;;11.96;35.38;101771.59;5298255;26;20021;-82
2024/04/10 01:51:06;;;;;;;6.60;1.80;;;;;;;11.93;35.92;101774.56;5311529;26;20008;-81
2024/04/10 01:53:33;;;;;;;7.40;1.70;;;;;;;11.94;35.53;101775.44;5303794;26;20057;-82
2024/04/10 01:56:03;;;;;;;4.03;1.45;;;;;;;11.90;35.77;101779.41;5309048;27;20010;-81
2024/04/10 01:58:34;;;;;;;4.43;1.25;;;;;;;11.91;35.81;101782.03;5310754;26;20028;-80
2024/04/10 02:01:04;;;;;;;5.25;1.42;;;;;;;11.86;35.90;101784.28;5308854;26;20021;-81
2024/04/10 02:03:31;;;;;;;4.78;1.70;;;;;;;11.85;35.80;101787.13;5309836;27;20020;-80
2024/04/10 02:06:03;;;;;;;5.50;1.63;;;;;;;11.83;35.92;101798.22;5309137;27;20021;-81
2024/04/10 02:08:30;;;;;;;5.45;1.58;;;;;;;11.81;36.10;101796.59;5308542;26;20009;-82
2024/04/10 02:11:19;;;;;;;5.45;1.77;;;;;;;11.79;35.88;101795.84;5311013;26;20010;-81
2024/04/10 02:13:49;;;;;;;5.78;1.40;;;;;;;11.80;36.27;101803.94;5307577;27;20006;-80
2024/04/10 02:16:19;;;;;;;4.13;1.35;;;;;;;11.76;36.03;101812.53;5310344;26;20005;-81
2024/04/10 02:18:46;;;;;;;6.93;1.67;;;;;;;11.76;36.02;101816.16;5304744;26;20093;-81
2024/04/10 02:21:17;;;;;;;4.55;1.40;;;;;;;11.75;36.26;101814.41;5311778;26;20002;-80
2024/04/10 02:23:46;;;;;;;5.63;1.67;;;;;;;11.74;36.33;101805.28;5334796;26;20006;-81
2024/04/10 02:26:17;;;;;;;6.38;1.58;;;;;;;11.74;36.01;101818.13;5311667;26;20005;-80
2024/04/10 02:28:44;;;;;;;7.53;1.73;;;;;;;11.73;35.98;101821.88;5311924;27;20086;-81
2024/04/10 02:31:17;;;;;;;5.80;1.58;;;;;;;11.73;36.55;101814.50;5311448;26;20080;-81
2024/04/10 02:33:44;;;;;;;4.03;1.25;;;;;;;11.69;36.03;101815.75;5313140;26;20466;-82
2024/04/10 02:36:14;;;;;;;5.22;1.77;;;;;;;11.71;36.36;101812.91;5313714;27;20013;-80
2024/04/10 02:38:42;;;;;;;6.43;1.90;;;;;;;11.71;36.30;101826.63;5314246;26;20018;-81
2024/04/10 02:41:12;;;;;;;7.13;1.60;;;;;;;11.68;36.24;101821.34;5311290;26;20005;-81
2024/04/10 02:43:39;;;;;;;4.60;1.58;;;;;;;11.65;36.14;101822.47;5312784;27;20467;-82
2024/04/10 02:46:09;;;;;;;4.90;1.73;;;;;;;11.67;35.99;101834.19;5311769;26;20009;-82
2024/04/10 02:48:39;;;;;;;7.07;1.75;;;;;;;11.67;36.13;101834.19;5306380;27;20005;-81
2024/04/10 02:51:08;;;;;;;6.10;1.83;;;;;;;11.62;36.46;101824.56;5312673;27;20021;-81
2024/04/10 02:53:35;;;;;;;4.53;1.38;;;;;;;11.62;36.27;101835.53;5313662;26;20481;-81
2024/04/10 02:56:06;;;;;;;7.07;1.70;;;;;;;11.60;36.28;101840.22;5297999;27;20017;-81
2024/04/10 02:58:33;;;;;;;5.10;1.58;;;;;;;11.58;36.28;101851.31;5311320;27;20043;-81
2024/04/10 03:01:04;;;;;;;5.43;1.85;;;;;;;11.60;36.53;101860.31;5312115;26;20038;-81
2024/04/10 03:03:32;;;;;;;6.65;1.58;;;;;;;11.56;36.34;101855.16;5310860;26;20001;-81
2024/04/10 03:06:07;;;;;;;5.15;1.77;;;;;;;11.58;36.11;101866.88;5311263;27;20017;-81
2024/04/10 03:08:36;;;;;;;6.70;2.03;;;;;;;11.53;36.31;101870.00;5310367;26;20020;-82
2024/04/10 03:11:07;;;;;;;5.70;1.55;;;;;;;11.51;36.41;101869.22;5308481;27;20009;-82
2024/04/10 03:13:37;;;;;;;6.07;1.65;;;;;;;11.49;36.59;101873.94;5309647;27;20079;-81
2024/04/10 03:16:08;;;;;;;5.10;1.60;;;;;;;11.47;36.17;101875.91;5309615;26;20009;-81
2024/04/10 03:18:35;;;;;;;4.95;1.60;;;;;;;11.46;36.46;101887.91;5312690;26;20017;-79
2024/04/10 03:21:07;;;;;;;4.55;1.52;;;;;;;11.46;37.06;101892.50;5315050;26;20017;-80
2024/04/10 03:23:35;;;;;;;5.55;1.70;;;;;;;11.39;36.32;101892.06;5314772;26;20021;-79
2024/04/10 03:26:06;;;;;;;4.88;1.40;;;;;;;11.42;36.45;101904.66;5317684;27;20001;-80
2024/04/10 03:28:33;;;;;;;3.83;1.60;;;;;;;11.37;36.67;101896.81;5321132;26;20006;-81
2024/04/10 03:31:07;;;;;;;5.50;1.55;;;;;;;11.39;36.89;101905.75;5317122;26;20053;-81
2024/04/10 03:33:34;;;;;;;8.00;2.58;;;;;;;11.32;36.85;101910.81;5303366;26;20076;-80
2024/04/10 03:36:08;;;;;;;5.78;1.50;;;;;;;11.36;36.98;101912.38;5309259;26;20005;-81
2024/04/10 03:38:35;;;;;;;6.68;1.75;;;;;;;11.33;36.68;101914.44;5323050;26;20012;-80
2024/04/10 03:41:06;;;;;;;6.32;1.52;;;;;;;11.31;36.81;101925.53;5319826;27;20009;-81
2024/04/10 03:43:35;;;;;;;4.95;1.60;;;;;;;11.30;36.96;101921.06;5319640;26;20011;-81
2024/04/10 03:46:08;;;;;;;6.95;1.67;;;;;;;11.30;36.94;101922.91;5317503;27;20342;-81
2024/04/10 03:48:38;;;;;;;5.68;1.65;;;;;;;11.27;36.90;101929.50;5316791;26;20469;-81
2024/04/10 03:51:12;;;;;;;4.97;1.60;;;;;;;11.30;37.08;101929.28;5296560;27;20006;-81
2024/04/10 03:53:40;;;;;;;4.55;1.65;;;;;;;11.23;36.91;101927.94;5311142;26;20268;-80
2024/04/10 03:56:12;;;;;;;3.67;1.67;;;;;;;11.23;36.75;101936.16;5309275;26;20131;-81
2024/04/10 03:58:39;;;;;;;5.22;1.77;;;;;;;11.22;36.85;101942.66;5310950;27;20010;-81
2024/04/10 04:01:09;;;;;;;6.97;2.25;;;;;;;11.22;36.79;101953.63;5309387;27;20021;-81
2024/04/10 04:03:38;;;;;;;5.05;1.65;;;;;;;11.19;37.24;101953.84;5306242;26;20020;-81
2024/04/10 04:06:11;;;;;;;4.72;1.50;;;;;;;11.19;37.19;101956.59;5310306;26;20006;-80
2024/04/10 04:08:38;;;;;;;6.07;1.67;;;;;;;11.14;37.04;101960.66;5307390;26;20009;-81
2024/04/10 04:11:08;;;;;;;5.47;1.55;;;;;;;11.16;37.32;101970.50;5311906;27;20020;-81
2024/04/10 04:13:37;;;;;;;5.07;1.35;;;;;;;11.15;37.21;101973.34;5312418;26;20026;-80
2024/04/10 04:16:08;;;;;;;5.43;1.83;;;;;;;11.14;37.33;101977.09;5310451;26;20353;-81
2024/04/10 04:18:36;;;;;;;4.60;1.40;;;;;;;11.14;37.18;101988.91;5312596;26;20009;-80
2024/04/10 04:21:06;;;;;;;5.63;1.77;;;;;;;11.13;37.47;101992.66;5310121;26;20043;-80
2024/04/10 04:23:37;;;;;;;5.50;1.55;;;;;;;11.16;37.61;102000.63;5305434;26;20010;-80
2024/04/10 04:26:07;;;;;;;4.40;1.42;;;;;;;11.14;37.41;102001.75;5325733;26;20696;-79
2024/04/10 04:28:34;;;;;;;6.22;1.77;;;;;;;11.14;37.11;102007.22;5311435;26;20016;-80
2024/04/10 04:31:05;;;;;;;5.13;1.60;;;;;;;11.13;37.40;102011.84;5311389;26;20014;-82
2024/04/10 04:33:34;;;;;;;;;;;;;;;10.87;38.16;102019.16;5305311;26;20011;-81
2024/04/10 04:36:06;;;;;;;6.03;1.40;;;;;;;11.09;37.29;102020.38;5310041;26;19926;-82
2024/04/10 04:38:33;;;;;;;4.78;1.42;;;;;;;11.09;37.32;102020.38;5302547;26;20088;-82
2024/04/10 04:41:06;;;;;;;5.03;1.80;;;;;;;11.12;37.32;102028.38;5309281;27;20012;-82
2024/04/10 04:43:33;;;;;;;5.07;1.60;;;;;;;11.05;37.40;102022.47;5307209;26;20079;-81
2024/04/10 04:46:05;;;;;;;5.18;1.65;;;;;;;11.09;37.58;102039.53;5303435;27;20462;-81
2024/04/10 04:48:32;;;;;;;4.70;2.00;;;;;;;11.08;37.34;102049.63;5289607;27;20020;-80
2024/04/10 04:51:07;;;;;;;5.80;1.52;;;;;;;11.08;37.72;102046.88;5309174;26;20016;-80
2024/04/10 04:53:34;;;;;;;6.05;2.08;;;;;;;11.08;37.90;102043.25;5300891;26;20016;-81
2024/04/10 04:56:08;;;;;;;5.30;1.42;;;;;;;11.07;38.10;102042.38;5311548;26;20478;-80
2024/04/10 04:58:35;;;;;;;7.35;1.55;;;;;;;11.05;37.91;102051.72;5307773;26;20083;-81
2024/04/10 05:01:06;;;;;;;5.43;1.67;;;;;;;11.07;37.77;102049.72;5317346;26;20016;-81
2024/04/10 05:06:23;;;;;;;4.65;1.60;;;;;;;11.04;37.92;102059.06;5306855;26;20037;-81
2024/04/10 05:08:54;;;;;;;5.25;1.90;;;;;;;11.08;37.84;102065.19;5306283;27;20020;-80
2024/04/10 05:13:23;;;;;;;6.65;2.55;;;;;;;11.14;38.33;102073.84;5439080;25;20429;-73
2024/04/10 05:15:55;;;;;;;6.22;2.10;;;;;;;11.12;38.41;102088.66;5423290;25;20525;-73
2024/04/10 05:18:25;;;;;;;5.88;2.22;;;;;;;11.07;38.39;102086.22;5427719;26;20017;-73
2024/04/10 05:20:52;;;;;;;4.65;2.00;;;;;;;11.10;38.29;102093.34;5424032;26;20004;-73
2024/04/10 05:23:23;;;;;;;8.07;2.20;;;;;;;11.12;38.27;102092.28;5422887;26;20015;-73
2024/04/10 05:25:52;;;;;;;6.78;2.00;;;;;;;11.13;38.49;102102.25;5423327;26;20018;-73
2024/04/10 05:28:25;;;;;;;4.95;1.80;;;;;;;11.16;38.40;102107.50;5417963;26;20018;-73
2024/04/10 05:31:00;;;;;;;8.55;2.72;;;;;;;11.17;38.41;102113.84;5424831;26;20008;-73
2024/04/10 05:33:31;;;;;;;7.47;2.70;;;;;;;11.15;38.33;102118.56;5420814;26;20018;-73
2024/04/10 05:35:59;;;;;;;6.60;2.38;;;;;;;11.17;38.38;102113.84;5427330;26;20867;-75
2024/04/10 05:38:32;;;;;;;7.45;2.47;;;;;;;11.18;38.20;102127.44;5415092;26;20469;-73
2024/04/10 05:40:59;;;;;;;6.15;1.95;;;;;;;11.16;37.99;102136.75;5427068;26;20019;-73
2024/04/10 05:43:31;;;;;;;6.22;1.98;;;;;;;11.19;38.47;102131.06;5421477;26;20076;-74
2024/04/10 05:45:59;;;;;;;6.30;1.83;;;;;;;11.15;38.21;102152.31;5424837;26;20018;-73
2024/04/10 05:48:29;;;;;;;5.65;2.00;;;;;;;11.17;38.32;102154.94;5421674;26;20475;-73
2024/04/10 05:50:58;;;;;;;6.93;1.90;;;;;;;11.19;38.42;102159.34;5421407;26;20027;-72
2024/04/10 05:53:27;;;;;;;7.18;2.45;;;;;;;11.20;38.13;102155.63;5421258;26;20003;-73
2024/04/10 05:55:55;;;;;;;5.95;1.90;;;;;;;11.21;38.20;102164.72;5423886;26;20019;-73
2024/04/10 05:58:24;;;;;;;6.22;2.13;;;;;;;11.23;38.37;102162.75;5421761;26;20007;-74
2024/04/10 06:00:54;;;;;;;6.13;2.00;;;;;;;11.26;38.40;102168.91;5428745;26;20018;-73
2024/04/10 06:03:24;;;;;;;5.40;1.90;;;;;;;11.24;38.52;102176.34;5419211;26;20003;-73
2024/04/10 06:05:53;;;;;;;5.03;1.80;;;;;;;11.26;38.13;102177.13;5423819;26;20018;-73
2024/04/10 06:08:23;;;;;;;6.40;2.30;;;;;;;11.28;38.70;102179.75;5415234;26;20443;-73
2024/04/10 06:10:51;;;;;;;5.35;1.80;;;;;;;11.29;38.49;102193.38;5423690;26;20401;-73
2024/04/10 06:13:21;;;;;;;6.70;2.60;;;;;;;11.31;38.47;102188.63;5419115;26;20003;-73
2024/04/10 06:15:59;;;;;;;5.60;2.00;;;;;;;11.35;39.15;102195.66;5422325;26;20014;-73
2024/04/10 06:18:29;;;;;;;8.27;2.17;;;;;;;11.35;38.56;102203.00;5417914;26;20039;-74
2024/04/10 06:20:57;;;;;;;6.53;2.13;;;;;;;11.40;38.75;102214.50;5419398;26;20267;-73
2024/04/10 06:23:27;;;;;;;6.55;1.98;;;;;;;11.42;38.53;102211.69;5408871;26;20076;-73
2024/04/10 06:25:55;;;;;;;5.53;2.05;;;;;;;11.45;38.65;102212.34;5406034;26;20052;-73
2024/04/10 06:28:25;;;;;;;7.72;2.00;;;;;;;11.49;38.78;102213.00;5404001;26;20003;-73
2024/04/10 06:31:09;;;;;;;6.35;2.38;;;;;;;11.54;38.86;102210.84;5409596;26;20020;-74
2024/04/10 06:33:36;;;;;;;4.40;2.13;;;;;;;11.54;38.68;102219.94;5404049;26;19999;-74
2024/04/10 06:36:07;;;;;;;5.35;2.35;;;;;;;11.58;38.60;102231.56;5408485;26;20008;-74
2024/04/10 06:38:36;;;;;;;6.75;2.00;;;;;;;11.62;38.70;102234.03;5403402;26;20506;-74
2024/04/10 06:41:06;;;;;;;8.40;2.35;;;;;;;11.65;38.70;102235.66;5411768;26;20447;-74
2024/04/10 06:43:33;;;;;;;5.55;1.80;;;;;;;11.67;38.97;102241.91;5401370;26;20014;-74
2024/04/10 06:46:07;;;;;;;4.50;2.33;;;;;;;11.73;38.84;102244.22;5404556;26;20043;-74
2024/04/10 06:48:35;;;;;;;7.70;2.25;;;;;;;11.72;38.50;102246.06;5401663;26;20003;-75
2024/04/10 06:51:07;;;;;;;6.07;2.22;;;;;;;11.78;38.76;102260.34;5409101;26;20031;-74
2024/04/10 06:53:34;;;;;;;3.33;1.42;;;;;;;11.79;38.64;102260.25;5404160;26;20014;-74
2024/04/10 06:56:06;;;;;;;7.15;2.45;;;;;;;11.84;38.40;102265.41;5406253;26;20451;-74
2024/04/10 06:58:38;;;;;;;5.72;1.80;;;;;;;11.85;38.78;102267.16;5402442;26;20007;-74
2024/04/10 07:01:09;;;;;;;5.22;1.90;;;;;;;11.89;38.79;102272.31;5406125;26;20784;-73
2024/04/10 07:03:41;;;;;;;4.80;1.77;;;;;;;11.90;38.22;102275.94;5404794;26;20011;-75
2024/04/10 07:06:10;;;;;;;5.63;1.85;;;;;;;11.87;38.20;102274.31;5408546;26;20015;-73
2024/04/10 07:08:42;;;;;;;6.22;1.65;;;;;;;11.91;38.52;102283.19;5402804;26;20011;-74
2024/04/10 07:11:16;;;;;;;6.75;2.00;;;;;;;11.90;38.07;102278.69;5407467;26;20047;-73
2024/04/10 07:13:50;;;;;;;5.00;1.95;;;;;;;11.89;38.20;102286.03;5397548;26;20011;-73
2024/04/10 07:16:26;;;;;;;7.22;2.70;;;;;;;11.91;38.42;102289.53;5403810;26;20015;-76
2024/04/10 07:18:58;;;;;;;5.55;2.13;;;;;;;11.88;38.28;102297.13;5407288;26;20003;-76
2024/04/10 07:21:25;;;;;;;6.78;2.03;;;;;;;11.88;38.31;102294.38;5405017;26;20451;-76
2024/04/10 07:23:55;;;;;;;5.47;1.80;;;;;;;11.88;38.45;102295.28;5407631;26;20003;-73
2024/04/10 07:26:27;;;;;;;10.02;2.33;;;;;;;11.89;38.26;102299.75;5401025;26;20318;-73
2024/04/10 07:28:59;;;;;;;3.83;1.65;;;;;;;11.91;38.20;102302.38;5406641;26;20077;-73
2024/04/10 07:31:32;;;;;;;6.72;2.13;;;;;;;11.91;38.32;102316.97;5406018;26;20061;-74
2024/04/10 07:34:04;;;;;;;7.40;2.33;;;;;;;11.89;38.51;102318.94;5404105;26;20013;-73
2024/04/10 07:36:33;;;;;;;6.97;2.00;;;;;;;11.88;38.05;102330.06;5402437;26;20003;-73
2024/04/10 07:39:08;;;;;;;6.32;2.00;;;;;;;11.89;38.17;102321.69;5408511;26;20178;-73
2024/04/10 07:41:37;;;;;;;3.97;1.65;;;;;;;11.90;38.17;102333.53;5406122;26;20023;-74
2024/04/10 07:44:08;;;;;;;6.18;2.30;;;;;;;11.89;38.34;102335.41;5406674;26;20016;-73
2024/04/10 07:46:39;;;;;;;4.95;1.70;;;;;;;11.91;38.71;102340.78;5407563;26;20003;-73
2024/04/10 07:49:09;;;;;;;6.68;1.80;;;;;;;11.91;38.35;102344.41;5424397;26;20057;-73
2024/04/10 07:51:37;;;;;;;5.82;1.90;;;;;;;11.90;38.66;102336.28;5407934;26;20269;-73
2024/04/10 07:54:07;;;;;;;6.85;2.40;;;;;;;11.94;38.61;102346.06;5405177;26;21039;-73
2024/04/10 07:56:34;;;;;;;5.10;2.10;;;;;;;11.95;38.64;102348.72;5409256;26;20079;-73
2024/04/10 07:59:04;;;;;;;7.03;1.90;;;;;;;11.97;38.47;102348.59;5411096;26;20610;-74
2024/04/10 08:01:31;;;;;;;6.90;1.85;;;;;;;11.98;38.61;102351.22;5411459;21;20006;-73
2024/04/10 08:04:06;;;;;;;4.75;1.90;;;;;;;12.01;38.72;102352.88;5374562;26;20012;-73
2024/04/10 08:06:36;;;;;;;5.85;1.98;;;;;;;12.01;38.86;102353.78;5364396;26;20099;-73
2024/04/10 08:09:06;;;;;;;4.93;2.20;;;;;;;12.02;38.86;102347.31;5370700;26;20020;-72
2024/04/10 08:11:33;;;;;;;6.18;2.03;;;;;;;12.05;38.69;102352.56;5329468;26;21647;-73
2024/04/10 08:14:03;;;;;;;5.50;1.60;;;;;;;12.09;38.62;102353.22;5366794;26;20008;-73
2024/04/10 08:16:32;;;;;;;3.85;1.70;;;;;;;12.13;38.97;102365.72;5362884;26;20017;-73
2024/04/10 08:19:06;;;;;;;4.13;1.73;;;;;;;12.19;38.81;102368.06;5372974;26;20004;-73
2024/04/10 08:21:36;;;;;;;6.78;1.70;;;;;;;12.24;38.94;102363.13;5341802;26;20078;-72
2024/04/10 08:24:06;;;;;;;5.65;2.00;;;;;;;12.31;39.03;102374.53;5367258;26;20015;-72
2024/04/10 08:26:34;;;;;;;6.28;1.90;;;;;;;12.38;39.06;102375.84;5361369;26;20020;-72
2024/04/10 08:29:08;;;;;;;7.50;2.13;;;;;;;12.44;39.10;102376.31;5366194;26;20008;-72
2024/04/10 08:31:36;;;;;;;5.78;2.00;;;;;;;12.54;38.83;102381.16;5355475;26;20024;-72
2024/04/10 08:34:10;;;;;;;7.45;2.00;;;;;;;12.64;38.46;102374.03;5364721;26;20359;-72
2024/04/10 08:36:37;;;;;;;5.25;1.95;;;;;;;12.69;38.32;102375.47;5363797;26;20339;-72
2024/04/10 08:39:07;;;;;;;5.07;2.10;;;;;;;12.78;38.65;102387.66;5342951;26;20016;-72
2024/04/10 08:41:34;;;;;;;5.72;2.30;;;;;;;12.88;38.49;102388.72;5343774;26;20015;-72
2024/04/10 08:44:06;;;;;;;4.80;1.95;;;;;;;12.99;38.56;102382.44;5361159;26;20019;-72
2024/04/10 08:46:34;;;;;;;5.15;1.98;;;;;;;13.09;38.71;102391.75;5352005;26;20467;-72
2024/04/10 08:49:04;;;;;;;6.65;1.90;;;;;;;13.21;38.57;102388.97;5357843;26;20008;-72
2024/04/10 08:51:34;;;;;;;6.20;1.77;;;;;;;13.33;38.16;102384.44;5363736;26;20005;-71
2024/04/10 08:54:04;;;;;;;4.28;1.45;;;;;;;13.44;38.55;102387.25;5351466;26;20451;-71
2024/04/10 08:56:31;;;;;;;4.50;2.30;;;;;;;13.56;38.18;102385.44;5357247;26;20372;-72
2024/04/10 08:59:01;;;;;;;4.50;2.00;;;;;;;13.68;38.11;102387.28;5363947;26;20347;-72
2024/04/10 09:01:30;;;;;;;5.15;2.10;;;;;;;13.80;38.17;102391.84;5353612;26;20004;-72
2024/04/10 09:04:08;;;;;;;5.03;2.10;;;;;;;13.97;37.48;102394.16;5374377;26;20015;-73
2024/04/10 09:06:42;;;;;;;6.20;2.05;;;;;;;14.09;37.60;102405.22;5353368;26;20329;-72
2024/04/10 09:09:09;;;;;;;4.97;1.80;;;;;;;14.18;37.54;102407.25;5354173;26;20027;-72
2024/04/10 09:11:39;;;;;;;5.90;1.90;;;;;;;14.30;37.18;102398.00;5339926;26;20012;-72
2024/04/10 09:14:10;;;;;;;6.00;1.80;;;;;;;14.41;37.08;102409.06;5359013;26;20397;-72
2024/04/10 09:16:40;;;;;;;5.03;2.00;;;;;;;14.52;37.11;102411.00;5359829;26;20420;-72
2024/04/10 09:19:10;;;;;;;4.47;1.83;;;;;;;14.62;36.73;102407.38;5346047;26;20019;-72
2024/04/10 09:21:44;;;;;;;4.95;2.00;;;;;;;14.72;36.36;102408.41;5340781;26;20041;-72
2024/04/10 09:24:13;;;;;;;4.18;1.85;;;;;;;14.82;36.65;102411.28;5366701;26;20081;-72
2024/04/10 09:26:48;;;;;;;5.78;2.00;;;;;;;14.92;36.49;102415.06;5352364;26;20454;-70
2024/04/10 09:29:19;;;;;;;5.50;1.70;;;;;;;15.01;36.53;102410.69;5317889;26;20005;-72
2024/04/10 09:31:51;;;;;;;4.45;1.70;;;;;;;15.13;35.92;102420.69;5362240;26;20004;-72
2024/04/10 09:34:20;;;;;;;6.95;1.67;;;;;;;15.21;36.07;102420.91;5350313;26;20020;-72
2024/04/10 09:36:53;;;;;;;3.13;1.40;;;;;;;15.35;35.40;102417.03;5360697;26;20004;-72
2024/04/10 09:39:22;;;;;;;3.95;1.70;;;;;;;15.41;35.18;102417.44;5359157;26;20343;-72
2024/04/10 09:41:58;;;;;;;4.55;1.90;;;;;;;15.50;34.47;102421.31;5368238;26;20068;-72
2024/04/10 09:44:29;;;;;;;3.97;1.80;;;;;;;15.55;34.42;102421.78;5360259;26;20048;-73
2024/04/10 09:47:00;;;;;;;3.33;1.65;;;;;;;15.58;34.55;102428.94;5360254;26;20033;-73
2024/04/10 09:49:33;;;;;;;3.47;1.40;;;;;;;15.60;34.16;102430.53;5355187;26;20444;-72
2024/04/10 09:52:07;;;;;;;3.45;1.40;;;;;;;15.62;33.71;102435.94;5357988;26;20274;-72
2024/04/10 09:54:35;;;;;;;3.58;1.48;;;;;;;15.58;33.81;102435.34;5359539;26;20083;-72
2024/04/10 09:57:10;;;;;;;4.63;1.65;;;;;;;15.56;33.65;102430.94;5360952;26;20019;-73
2024/04/10 09:59:38;;;;;;;3.10;1.13;;;;;;;15.55;33.95;102437.47;5371034;26;20012;-73
2024/04/10 10:02:10;;;;;;;4.75;1.50;;;;;;;15.58;33.60;102429.81;5352120;26;20009;-72
2024/04/10 10:04:37;;;;;;;3.15;1.45;;;;;;;15.57;34.14;102440.97;5360858;26;20455;-72
2024/04/10 10:07:10;;;;;;;2.97;1.38;;;;;;;15.62;33.36;102441.44;5352807;26;20336;-72
2024/04/10 10:09:37;;;;;;;4.55;1.63;;;;;;;15.59;33.71;102439.81;5330192;26;20023;-72
2024/04/10 10:12:07;;;;;;;5.03;1.80;;;;;;;15.64;33.73;102453.25;5329839;26;20008;-72
2024/04/10 10:14:34;;;;;;;5.78;1.98;;;;;;;15.65;33.29;102453.13;5359171;26;20008;-72
2024/04/10 10:17:11;;;;;;;4.78;1.40;;;;;;;15.69;32.59;102449.09;5355581;26;20106;-72
2024/04/10 10:19:38;;;;;;;3.83;1.27;;;;;;;15.68;33.10;102460.25;5363399;26;20020;-73
2024/04/10 10:22:17;;;;;;;4.70;1.35;;;;;;;15.70;32.31;102455.47;5353342;26;20009;-72
2024/04/10 10:24:44;;;;;;;3.47;1.45;;;;;;;15.68;32.67;102454.72;5362394;26;20004;-72
2024/04/10 10:27:24;;;;;;;2.97;1.27;;;;;;;15.68;32.63;102458.38;5363869;26;20020;-71
2024/04/10 10:30:02;;;;;;;4.03;1.40;;;;;;;15.70;31.81;102458.25;5366129;26;20315;-71
2024/04/10 10:32:34;;;;;;;3.10;1.30;;;;;;;15.67;32.40;102459.38;5368913;26;20079;-73
2024/04/10 10:35:07;;;;;;;4.60;1.50;;;;;;;15.70;32.06;102461.88;5357971;26;20048;-72
2024/04/10 10:37:43;;;;;;;5.43;1.50;;;;;;;15.71;32.61;102462.75;5352482;26;20033;-72
2024/04/10 10:40:16;;;;;;;4.78;1.70;;;;;;;15.70;31.81;102467.41;5359906;26;20008;-72
2024/04/10 10:42:46;;;;;;;2.63;1.10;;;;;;;15.70;32.47;102461.88;5357028;26;20083;-72
2024/04/10 10:45:13;;;;;;;3.70;1.20;;;;;;;15.72;32.45;102461.75;5351796;26;20017;-72
2024/04/10 10:47:42;;;;;;;4.40;1.25;;;;;;;15.75;32.35;102458.75;5368125;26;20005;-72
2024/04/10 10:50:11;;;;;;;3.03;1.30;;;;;;;15.79;32.70;102460.22;5355048;26;20020;-71
2024/04/10 10:52:43;;;;;;;2.83;1.40;;;;;;;15.83;32.26;102467.25;5352293;26;20048;-71
2024/04/10 10:55:13;;;;;;;2.95;1.10;;;;;;;15.86;32.24;102467.84;5333628;26;20033;-72
2024/04/10 10:57:44;;;;;;;4.72;1.30;;;;;;;15.88;32.36;102468.63;5341621;26;20008;-72
2024/04/10 11:00:14;;;;;;;4.18;1.30;;;;;;;15.95;32.08;102470.84;5371098;26;20464;-72
2024/04/10 11:02:44;;;;;;;4.90;1.38;;;;;;;15.95;31.87;102468.97;5350649;26;20013;-73
2024/04/10 11:05:13;;;;;;;3.90;1.50;;;;;;;15.98;32.14;102462.31;5365181;26;20482;-73
2024/04/10 11:07:45;;;;;;;4.10;1.35;;;;;;;16.02;31.69;102464.66;5360410;26;20005;-73
2024/04/10 11:10:14;;;;;;;3.72;1.40;;;;;;;16.00;32.14;102468.59;5331635;26;20015;-60
2024/04/10 11:12:43;;;;;;;4.18;1.40;;;;;;;16.04;32.56;102464.53;5361744;26;20459;-63
2024/04/10 11:15:11;;;;;;;3.22;1.40;;;;;;;16.10;32.07;102466.75;5353649;26;20094;-66
2024/04/10 11:17:41;;;;;;;3.97;1.08;;;;;;;16.11;32.23;102463.00;5357955;26;20458;-62
2024/04/10 11:20:10;;;;;;;2.83;1.20;;;;;;;16.14;32.07;102471.91;5365416;26;20434;-69
2024/04/10 11:22:40;;;;;;;4.57;1.25;;;;;;;16.16;32.10;102466.25;5360838;26;20016;-71
2024/04/10 11:25:10;;;;;;;3.13;1.40;;;;;;;16.20;31.32;102473.28;5356212;26;20005;-71
2024/04/10 11:27:39;;;;;;;4.65;1.25;;;;;;;16.18;31.61;102469.78;5360497;26;20497;-71
2024/04/10 11:30:07;;;;;;;3.83;1.02;;;;;;;16.17;31.61;102463.38;5324625;26;20024;-71
2024/04/10 11:32:37;;;;;;;4.03;1.40;;;;;;;16.17;31.23;102460.63;5357797;26;20537;-71
2024/04/10 11:35:05;;;;;;;3.55;1.30;;;;;;;16.17;31.29;102463.38;5362678;26;20484;-71
2024/04/10 11:37:34;;;;;;;3.30;1.25;;;;;;;16.18;31.05;102467.03;5357989;26;20453;-70
2024/04/10 11:40:01;;;;;;;3.92;1.30;;;;;;;16.20;31.23;102479.69;5358488;26;20466;-71
2024/04/10 11:42:34;;;;;;;2.97;1.20;;;;;;;16.25;30.84;102474.63;5354334;26;20017;-70